Narberth, United Kingdom
Current Conditions -  °F | °C
As of 1:50 PM on Wednesday 26 Nov 2014 (Local Time) from EGOP Reporting Station
Overcast Overcast  
Wind Chill:   Ceiling: 3500
Heat Index:   Visibility: 6mi
Dew Point:   Wind: 6mph
Humidity: 82%   Direction: 360°N
Pressure: 29.85"   Gusts: NA
Location:  51.8°N, 4.74°W
Report Text: EGOP 261350Z AUTO 36005KT 9999 // OVC035/// 09/06 Q1011
Loading
Personal Weather Stations






























Interactive Weather Map New forecast layout! Learn more

10-Day Weather Forecast

Advertisements
Track Severe Weather on mobile